Time;durP1;ratioP1;P1;durP2;ratioP2;P2;SDS_P1;SDS_P2;PMS_P1;PMS_P2;Temp;Humidity;BMP_temperature;BMP_pressure;BME280_temperature;BME280_humidity;BME280_pressure;Samples;Min_cycle;Max_cycle;Signal;HPM_P1;HPM_P2
2022/10/27 00:00:09;;;;;;;20.90;8.70;;;;;;;8.83;100.00;97164.53;5033356;28;20550;-78
2022/10/27 00:02:40;;;;;;;12.73;8.03;;;;;;;8.75;100.00;97154.66;5047661;28;20990;-78
2022/10/27 00:05:07;;;;;;;13.70;9.00;;;;;;;8.36;100.00;97117.44;5034991;28;20446;-78
2022/10/27 00:07:38;;;;;;;19.83;7.80;;;;;;;8.56;100.00;97154.75;5039901;28;20456;-78
2022/10/27 00:10:05;;;;;;;20.00;7.37;;;;;;;8.55;100.00;97161.09;5031908;28;20417;-78
2022/10/27 00:12:34;;;;;;;15.40;7.33;;;;;;;8.54;100.00;97156.09;5035028;28;20450;-78
2022/10/27 00:15:01;;;;;;;36.20;9.20;;;;;;;8.48;100.00;97149.38;5035176;28;20458;-78
2022/10/27 00:17:28;;;;;;;14.47;6.97;;;;;;;8.44;100.00;97141.28;5018245;28;20451;-78
2022/10/27 00:19:54;;;;;;;8.43;6.50;;;;;;;8.30;100.00;97122.00;5035385;28;20445;-78
2022/10/27 00:22:21;;;;;;;14.70;7.00;;;;;;;8.31;100.00;97113.03;5033841;28;20501;-78
2022/10/27 00:24:48;;;;;;;26.60;8.13;;;;;;;8.50;100.00;97150.66;5034126;28;20426;-78
2022/10/27 00:27:15;;;;;;;9.93;6.40;;;;;;;8.15;100.00;97109.13;5035788;28;20461;-78
2022/10/27 00:29:41;;;;;;;25.20;6.90;;;;;;;8.20;100.00;97140.63;5033957;28;20442;-78
2022/10/27 00:32:08;;;;;;;11.73;7.83;;;;;;;7.77;100.00;97088.16;5034144;28;20495;-78
2022/10/27 00:34:35;;;;;;;14.37;7.47;;;;;;;7.85;100.00;97105.91;5029662;28;20556;-78
2022/10/27 00:37:02;;;;;;;26.97;8.50;;;;;;;8.18;100.00;97146.19;5021842;28;20434;-78
2022/10/27 00:39:28;;;;;;;15.07;9.47;;;;;;;8.24;100.00;97136.34;5033518;28;20434;-78
2022/10/27 00:41:55;;;;;;;16.67;8.80;;;;;;;8.33;100.00;97153.03;5033607;28;20454;-78
2022/10/27 00:44:31;;;;;;;13.17;7.50;;;;;;;8.33;100.00;97149.63;5034698;28;20456;-78
2022/10/27 00:47:03;;;;;;;16.23;8.37;;;;;;;8.10;100.00;97112.59;5024348;28;20442;-78
2022/10/27 00:49:34;;;;;;;16.00;8.67;;;;;;;8.38;100.00;97146.91;5032037;28;20426;-78
2022/10/27 00:52:11;;;;;;;13.33;7.20;;;;;;;8.23;100.00;97154.00;5035119;28;20549;-78
2022/10/27 00:54:40;;;;;;;15.60;7.73;;;;;;;8.09;100.00;97133.97;5043991;28;20465;-78
2022/10/27 00:57:09;;;;;;;9.03;6.20;;;;;;;8.18;100.00;97159.34;5030030;28;20529;-78
2022/10/27 00:59:37;;;;;;;31.23;8.63;;;;;;;8.19;100.00;97158.28;5021354;28;20430;-78
2022/10/27 01:02:06;;;;;;;40.93;9.90;;;;;;;7.95;100.00;97118.13;5033852;28;20470;-78
2022/10/27 01:04:38;;;;;;;50.50;13.80;;;;;;;8.32;100.00;97167.28;5022288;28;21081;-78
2022/10/27 01:07:05;;;;;;;45.60;14.63;;;;;;;8.21;100.00;97136.91;5030229;28;20476;-78
2022/10/27 01:09:32;;;;;;;33.27;12.37;;;;;;;8.18;100.00;97117.22;5034722;28;20425;-78
2022/10/27 01:11:59;;;;;;;24.57;9.47;;;;;;;8.32;100.00;97135.66;5019708;28;20455;-78
2022/10/27 01:14:26;;;;;;;19.10;8.30;;;;;;;8.26;100.00;97132.34;5041978;28;20449;-78
2022/10/27 01:17:08;;;;;;;14.27;6.50;;;;;;;8.53;100.00;97170.34;5025629;28;20517;-78
2022/10/27 01:20:03;;;;;;;31.90;8.07;;;;;;;8.53;100.00;97173.00;5033040;28;20828;-78
2022/10/27 01:22:42;;;;;;;14.90;7.13;;;;;;;8.58;100.00;97165.00;5033265;28;20484;-78
2022/10/27 01:25:08;;;;;;;28.50;7.00;;;;;;;8.65;100.00;97177.78;5033141;28;20427;-78
2022/10/27 01:27:50;;;;;;;30.53;7.90;;;;;;;8.58;100.00;97183.47;5033180;28;20466;-78
2022/10/27 01:30:20;;;;;;;23.77;6.17;;;;;;;8.25;100.00;97141.31;5024073;28;20528;-78
2022/10/27 01:33:11;;;;;;;17.57;6.60;;;;;;;8.22;100.00;97146.38;5014738;28;20442;-78
2022/10/27 01:36:16;;;;;;;16.33;5.33;;;;;;;8.22;100.00;97167.47;5023242;28;20517;-78
2022/10/27 01:39:06;;;;;;;14.70;6.03;;;;;;;8.20;100.00;97161.69;5031654;28;20434;-78
2022/10/27 01:41:40;;;;;;;10.23;4.80;;;;;;;7.99;100.00;97130.44;5014648;28;20516;-78
2022/10/27 01:44:20;;;;;;;11.00;5.27;;;;;;;8.09;100.00;97147.13;5013721;28;20482;-78
2022/10/27 01:46:48;;;;;;;6.93;4.60;;;;;;;8.27;100.00;97176.03;5020475;28;20437;-78
2022/10/27 01:49:14;;;;;;;9.30;4.77;;;;;;;8.32;100.00;97169.94;5015824;28;20430;-78
2022/10/27 01:51:41;;;;;;;15.13;5.00;;;;;;;8.29;100.00;97162.59;5032125;28;20809;-78
2022/10/27 01:54:08;;;;;;;10.20;5.00;;;;;;;8.21;100.00;97171.16;5032342;28;20459;-77
2022/10/27 01:57:11;;;;;;;9.53;5.10;;;;;;;8.11;100.00;97179.22;5032072;28;20438;-78
2022/10/27 01:59:44;;;;;;;9.83;5.67;;;;;;;8.18;100.00;97172.53;5039714;28;20417;-78
2022/10/27 02:02:11;;;;;;;7.13;4.63;;;;;;;8.13;100.00;97169.19;5026385;28;20443;-78
2022/10/27 02:04:49;;;;;;;14.17;5.40;;;;;;;8.19;100.00;97173.31;5032237;28;20458;-78
2022/10/27 02:07:25;;;;;;;21.00;5.83;;;;;;;8.23;100.00;97164.53;5033362;28;20544;-78
2022/10/27 02:09:59;;;;;;;6.50;5.50;;;;;;;8.23;100.00;97163.75;5031956;28;20525;-78
2022/10/27 02:12:30;;;;;;;13.30;6.70;;;;;;;8.08;100.00;97140.31;5031859;28;20442;-78
2022/10/27 02:15:00;;;;;;;8.47;5.40;;;;;;;8.08;100.00;97132.41;5015539;28;20524;-78
2022/10/27 02:17:39;;;;;;;131.77;55.30;;;;;;;8.40;100.00;97181.66;5018835;28;20446;-78
2022/10/27 02:20:15;;;;;;;48.60;16.70;;;;;;;8.15;100.00;97154.69;5014959;28;20485;-78
2022/10/27 02:22:45;;;;;;;26.73;11.80;;;;;;;8.06;100.00;97147.72;5033351;28;20425;-78
2022/10/27 02:25:20;;;;;;;21.33;8.83;;;;;;;7.95;100.00;97126.81;5039811;28;20518;-78
2022/10/27 02:27:54;;;;;;;18.30;6.53;;;;;;;8.10;100.00;97146.84;5024706;28;20426;-78
2022/10/27 02:30:21;;;;;;;15.93;5.50;;;;;;;7.89;100.00;97111.41;5025105;28;20910;-78
2022/10/27 02:32:47;;;;;;;14.90;5.13;;;;;;;8.35;100.00;97179.91;5012629;28;20444;-77
2022/10/27 02:35:16;;;;;;;14.37;5.13;;;;;;;8.27;100.00;97170.78;5031724;28;20462;-78
2022/10/27 02:37:45;;;;;;;14.20;4.80;;;;;;;8.29;100.00;97173.16;5015332;28;20938;-78
2022/10/27 02:40:12;;;;;;;28.13;6.33;;;;;;;8.15;100.00;97141.50;5015324;28;20462;-78
2022/10/27 02:42:38;;;;;;;11.20;5.13;;;;;;;8.20;100.00;97159.06;5002207;28;20538;-78
2022/10/27 02:45:05;;;;;;;5.67;4.47;;;;;;;8.28;100.00;97175.00;5032947;28;20426;-78
2022/10/27 02:47:32;;;;;;;11.83;4.47;;;;;;;8.37;100.00;97183.03;5032709;28;20529;-78
2022/10/27 02:49:59;;;;;;;7.90;4.73;;;;;;;8.39;100.00;97182.72;5015061;28;20434;-78
2022/10/27 02:52:25;;;;;;;4.10;3.70;;;;;;;8.36;100.00;97183.31;5031455;28;20454;-78
2022/10/27 02:54:52;;;;;;;11.80;5.03;;;;;;;8.21;100.00;97158.00;5032675;28;20458;-78
2022/10/27 02:57:19;;;;;;;21.00;5.20;;;;;;;8.32;100.00;97185.72;5032655;28;20450;-78
2022/10/27 02:59:46;;;;;;;12.50;6.50;;;;;;;8.13;100.00;97154.16;5045368;28;20434;-78
2022/10/27 03:02:18;;;;;;;17.13;6.10;;;;;;;8.37;100.00;97182.25;5015847;28;20529;-78
2022/10/27 03:04:45;;;;;;;6.77;4.57;;;;;;;8.16;100.00;97144.91;5031755;28;20431;-78
2022/10/27 03:07:12;;;;;;;21.50;4.80;;;;;;;8.20;100.00;97153.81;5018264;28;20446;-78
2022/10/27 03:09:38;;;;;;;11.53;4.93;;;;;;;8.33;100.00;97166.22;5031594;28;20450;-78
2022/10/27 03:12:05;;;;;;;8.70;3.77;;;;;;;8.03;100.00;97150.94;5031328;28;20456;-78
2022/10/27 03:14:32;;;;;;;6.57;4.30;;;;;;;7.98;100.00;97151.78;5031688;28;20454;-78
2022/10/27 03:16:59;;;;;;;11.40;4.57;;;;;;;8.11;100.00;97180.00;5021572;28;20444;-78
2022/10/27 03:19:25;;;;;;;13.57;4.20;;;;;;;7.72;100.00;97117.19;5041145;28;20843;-78
2022/10/27 03:21:52;;;;;;;4.87;4.03;;;;;;;8.18;100.00;97190.19;5015688;28;20969;-78
2022/10/27 03:24:18;;;;;;;7.30;4.43;;;;;;;8.08;100.00;97166.66;5015364;28;20438;-78
2022/10/27 03:26:45;;;;;;;6.47;4.63;;;;;;;8.23;100.00;97193.50;5031943;28;20481;-78
2022/10/27 03:29:12;;;;;;;6.40;4.10;;;;;;;8.15;100.00;97186.28;5031604;28;20457;-78
2022/10/27 03:31:38;;;;;;;6.93;4.60;;;;;;;8.28;100.00;97208.47;5028810;28;20505;-78
2022/10/27 03:34:05;;;;;;;10.30;5.70;;;;;;;8.10;100.00;97172.41;5022535;28;20458;-78
2022/10/27 03:36:32;;;;;;;13.83;5.80;;;;;;;8.06;100.00;97153.78;5036064;28;20525;-78
2022/10/27 03:38:58;;;;;;;15.80;5.37;;;;;;;8.10;100.00;97186.34;5035212;28;20431;-78
2022/10/27 03:41:25;;;;;;;25.50;6.50;;;;;;;8.32;100.00;97213.94;5030514;28;20462;-77
2022/10/27 03:43:52;;;;;;;13.27;5.73;;;;;;;7.98;100.00;97189.44;5026355;28;20422;-78
2022/10/27 03:46:18;;;;;;;9.43;4.60;;;;;;;7.91;100.00;97178.50;5035007;28;20440;-77
2022/10/27 03:48:45;;;;;;;9.00;5.33;;;;;;;8.02;100.00;97194.16;5034827;28;20981;-77
2022/10/27 03:51:11;;;;;;;22.33;6.50;;;;;;;7.76;100.00;97151.63;5035105;28;21023;-78
2022/10/27 03:53:38;;;;;;;15.53;6.63;;;;;;;8.00;100.00;97186.50;5036197;28;20978;-77
2022/10/27 03:56:05;;;;;;;9.03;5.30;;;;;;;8.13;100.00;97216.59;5035964;28;20922;-77
2022/10/27 03:58:32;;;;;;;12.20;6.03;;;;;;;7.73;100.00;97152.97;5034613;28;20931;-78
2022/10/27 04:01:03;;;;;;;22.43;6.17;;;;;;;8.13;100.00;97208.69;5021023;28;20473;-78
2022/10/27 04:03:31;;;;;;;24.67;6.57;;;;;;;8.16;100.00;97210.78;5034528;28;20426;-78
2022/10/27 04:05:58;;;;;;;21.13;6.00;;;;;;;8.08;100.00;97191.13;5035756;28;20432;-78
2022/10/27 04:08:25;;;;;;;20.13;6.40;;;;;;;7.98;100.00;97164.94;5035709;28;20434;-78
2022/10/27 04:10:51;;;;;;;23.03;10.90;;;;;;;8.11;100.00;97206.34;5034431;28;20454;-77
2022/10/27 04:13:18;;;;;;;29.83;12.10;;;;;;;8.19;100.00;97216.25;5033791;28;20876;-77
2022/10/27 04:15:44;;;;;;;83.67;52.57;;;;;;;7.87;100.00;97156.44;5028102;28;20494;-77
2022/10/27 04:18:11;;;;;;;26.00;18.70;;;;;;;8.21;100.00;97215.94;5024264;28;20467;-78
2022/10/27 04:20:38;;;;;;;29.80;22.50;;;;;;;8.15;100.00;97193.41;5034500;28;20561;-78
2022/10/27 04:23:05;;;;;;;14.13;12.50;;;;;;;8.15;100.00;97196.03;5034244;28;20505;-78
2022/10/27 04:25:31;;;;;;;26.43;11.63;;;;;;;7.97;100.00;97166.03;5028473;28;20431;-78
2022/10/27 04:28:06;;;;;;;10.97;6.87;;;;;;;7.88;100.00;97168.56;5027314;28;20473;-78
2022/10/27 04:30:34;;;;;;;18.70;7.10;;;;;;;8.16;100.00;97208.91;5014195;28;20465;-78
2022/10/27 04:33:00;;;;;;;42.23;8.27;;;;;;;7.85;100.00;97165.69;5028214;28;20449;-78
2022/10/27 04:35:28;;;;;;;10.53;6.60;;;;;;;8.10;100.00;97202.16;5035511;28;20458;-78
2022/10/27 04:37:55;;;;;;;12.00;5.50;;;;;;;8.08;100.00;97209.56;5017850;28;20445;-77
2022/10/27 04:40:22;;;;;;;12.40;7.50;;;;;;;7.64;100.00;97144.97;5017953;28;20544;-78
2022/10/27 04:42:49;;;;;;;19.40;6.43;;;;;;;7.76;100.00;97176.09;5045538;28;20439;-77
2022/10/27 04:45:16;;;;;;;12.00;4.87;;;;;;;7.98;100.00;97205.22;5022629;28;20475;-78
2022/10/27 04:47:44;;;;;;;8.90;5.70;;;;;;;7.81;100.00;97183.13;5034671;28;20431;-78
2022/10/27 04:50:12;;;;;;;15.13;7.03;;;;;;;7.93;100.00;97207.16;5008711;28;20470;-78
2022/10/27 04:52:39;;;;;;;9.13;6.00;;;;;;;8.00;100.00;97202.31;5029515;28;20512;-78
2022/10/27 04:55:10;;;;;;;8.53;5.40;;;;;;;8.10;100.00;97186.34;5033349;28;21005;-78
2022/10/27 04:57:37;;;;;;;13.00;6.63;;;;;;;8.19;100.00;97218.09;5032983;28;20937;-78
2022/10/27 05:00:04;;;;;;;8.70;5.73;;;;;;;7.91;100.00;97167.19;5033267;28;20422;-78
2022/10/27 05:02:31;;;;;;;5.97;5.43;;;;;;;8.11;100.00;97214.25;5037111;28;20459;-78
2022/10/27 05:05:03;;;;;;;9.97;5.00;;;;;;;8.00;100.00;97205.72;5041791;28;20431;-78
2022/10/27 05:07:30;;;;;;;13.83;5.10;;;;;;;7.92;100.00;97187.97;5046517;28;20452;-78
2022/10/27 05:09:56;;;;;;;13.60;6.23;;;;;;;7.79;100.00;97161.59;5033293;28;20434;-78
2022/10/27 05:12:23;;;;;;;9.53;4.87;;;;;;;7.72;100.00;97143.50;5017286;28;20434;-78
2022/10/27 05:14:50;;;;;;;5.23;4.77;;;;;;;7.82;100.00;97190.75;5034888;28;20464;-78
2022/10/27 05:17:16;;;;;;;6.50;5.50;;;;;;;8.18;100.00;97227.06;5035090;28;20426;-78
2022/10/27 05:19:45;;;;;;;12.33;4.63;;;;;;;8.35;100.00;97231.81;5032949;28;20509;-78
2022/10/27 05:22:12;;;;;;;6.50;4.17;;;;;;;8.16;100.00;97218.69;5033130;28;20466;-78
2022/10/27 05:24:38;;;;;;;12.57;4.97;;;;;;;8.13;100.00;97206.84;5033299;28;20460;-78
2022/10/27 05:27:05;;;;;;;6.77;6.17;;;;;;;7.86;100.00;97165.41;5019957;28;20442;-78
2022/10/27 05:29:32;;;;;;;10.33;5.90;;;;;;;8.54;100.00;97251.00;5032112;28;20445;-77
2022/10/27 05:31:59;;;;;;;11.33;5.60;;;;;;;8.50;100.00;97250.00;5040497;28;20475;-77
2022/10/27 05:34:25;;;;;;;34.47;6.67;;;;;;;7.91;100.00;97199.56;5011870;28;20901;-77
2022/10/27 05:36:55;;;;;;;7.90;4.23;;;;;;;8.19;100.00;97232.03;5031417;28;20517;-77
2022/10/27 05:39:22;;;;;;;8.40;5.17;;;;;;;8.19;100.00;97234.69;5031713;28;20930;-77
2022/10/27 05:41:48;;;;;;;13.50;4.87;;;;;;;8.30;100.00;97254.53;5031657;28;20449;-77
2022/10/27 05:44:15;;;;;;;9.90;4.90;;;;;;;7.97;100.00;97208.94;5032976;28;20473;-77
2022/10/27 05:46:41;;;;;;;9.10;4.40;;;;;;;8.20;100.00;97238.09;5031553;28;20810;-77
2022/10/27 05:49:08;;;;;;;7.77;4.40;;;;;;;8.37;100.00;97248.91;5044786;28;20516;-76
2022/10/27 05:51:35;;;;;;;12.93;6.30;;;;;;;8.25;100.00;97240.63;5011960;28;20446;-77
2022/10/27 05:54:01;;;;;;;22.03;8.73;;;;;;;7.99;100.00;97232.34;5025632;28;20470;-77
2022/10/27 05:56:28;;;;;;;20.50;8.07;;;;;;;8.08;100.00;97235.13;5031649;28;20450;-77
2022/10/27 05:58:55;;;;;;;11.10;6.77;;;;;;;7.90;100.00;97207.75;5016627;28;20469;-77
2022/10/27 06:01:21;;;;;;;14.10;6.43;;;;;;;8.02;100.00;97223.13;5017176;28;20490;-78
2022/10/27 06:03:48;;;;;;;19.63;9.00;;;;;;;8.16;100.00;97258.19;5036038;28;20434;-78
2022/10/27 06:06:15;;;;;;;18.90;6.83;;;;;;;8.22;100.00;97265.72;5039558;28;20427;-78
2022/10/27 06:08:41;;;;;;;20.13;8.53;;;;;;;7.75;100.00;97210.63;5027358;28;20461;-78
2022/10/27 06:11:08;;;;;;;19.00;9.23;;;;;;;7.97;100.00;97230.00;5036287;28;20971;-78
2022/10/27 06:13:35;;;;;;;15.97;8.87;;;;;;;7.89;100.00;97206.97;5027761;28;20942;-78
2022/10/27 06:16:01;;;;;;;18.27;7.77;;;;;;;8.05;100.00;97239.13;5032503;28;20485;-77
2022/10/27 06:18:28;;;;;;;20.50;7.27;;;;;;;7.66;100.00;97195.47;5002990;28;20873;-78
2022/10/27 06:20:55;;;;;;;9.50;6.20;;;;;;;7.76;100.00;97214.81;5023852;28;20475;-78
2022/10/27 06:23:21;;;;;;;19.47;5.80;;;;;;;8.04;100.00;97260.47;5028815;28;20865;-78
2022/10/27 06:25:48;;;;;;;8.57;5.13;;;;;;;7.82;100.00;97237.34;5032737;28;20543;-78
2022/10/27 06:28:15;;;;;;;16.53;9.80;;;;;;;7.98;100.00;97259.75;5018284;28;20436;-78
2022/10/27 06:30:43;;;;;;;19.90;8.27;;;;;;;7.64;100.00;97215.22;5034874;28;20463;-78
2022/10/27 06:33:10;;;;;;;12.33;8.40;;;;;;;7.80;100.00;97236.84;5012382;28;20431;-77
2022/10/27 06:35:37;;;;;;;14.70;6.63;;;;;;;7.76;100.00;97220.84;5005338;28;20466;-77
2022/10/27 06:38:03;;;;;;;12.63;6.23;;;;;;;7.99;100.00;97253.41;5033313;28;20427;-77
2022/10/27 06:40:30;;;;;;;9.43;5.60;;;;;;;7.86;100.00;97225.16;5024461;28;20455;-80
2022/10/27 06:42:57;;;;;;;42.90;8.43;;;;;;;8.00;100.00;97252.34;5032193;28;20434;-80
2022/10/27 06:45:34;;;;;;;10.60;5.53;;;;;;;7.57;100.00;97188.47;5046919;28;20799;-79
2022/10/27 06:48:00;;;;;;;12.93;5.27;;;;;;;8.00;100.00;97282.09;5024669;28;20449;-80
2022/10/27 06:50:28;;;;;;;11.43;7.37;;;;;;;7.89;100.00;97264.91;5044658;28;20450;-79
2022/10/27 06:52:54;;;;;;;14.60;7.90;;;;;;;8.14;100.00;97297.97;5021577;28;20482;-80
2022/10/27 06:55:21;;;;;;;13.00;6.70;;;;;;;7.93;100.00;97262.47;5036035;28;20462;-80
2022/10/27 06:57:48;;;;;;;10.70;6.13;;;;;;;7.92;100.00;97250.38;5020927;28;20537;-80
2022/10/27 07:00:15;;;;;;;8.40;7.37;;;;;;;8.45;100.00;97308.88;5034580;28;20510;-80
2022/10/27 07:02:42;;;;;;;12.00;6.00;;;;;;;8.44;100.00;97314.44;5029626;28;20541;-80
2022/10/27 07:05:09;;;;;;;15.60;7.07;;;;;;;7.85;100.00;97269.16;5029067;28;20432;-80
2022/10/27 07:07:36;;;;;;;12.70;6.60;;;;;;;8.02;100.00;97271.31;5040963;28;20445;-80
2022/10/27 07:10:06;;;;;;;19.03;7.10;;;;;;;8.00;100.00;97282.09;5043178;28;20433;-80
2022/10/27 07:12:33;;;;;;;11.27;8.10;;;;;;;8.11;100.00;97311.72;5008476;28;20942;-80
2022/10/27 07:14:59;;;;;;;9.33;6.70;;;;;;;8.03;100.00;97275.50;5024919;28;20455;-79
2022/10/27 07:17:26;;;;;;;7.23;6.53;;;;;;;7.85;100.00;97245.44;5044964;28;20527;-80
2022/10/27 07:19:53;;;;;;;8.20;6.40;;;;;;;8.12;100.00;97279.03;5044719;28;20450;-80
2022/10/27 07:22:19;;;;;;;8.67;7.03;;;;;;;8.05;100.00;97268.09;5044023;28;20431;-79
2022/10/27 07:24:46;;;;;;;13.03;7.40;;;;;;;8.03;100.00;97253.66;5032608;28;20521;-80
2022/10/27 07:27:13;;;;;;;8.03;6.03;;;;;;;8.30;100.00;97301.16;5032514;28;20513;-80
2022/10/27 07:29:39;;;;;;;15.63;7.70;;;;;;;7.87;100.00;97235.41;5029406;28;20459;-80
2022/10/27 07:32:06;;;;;;;21.90;7.47;;;;;;;8.56;100.00;97318.19;5033520;28;20449;-80
2022/10/27 07:34:33;;;;;;;13.70;7.07;;;;;;;7.61;100.00;97166.59;5028474;28;20443;-80
2022/10/27 07:36:59;;;;;;;14.03;7.90;;;;;;;8.13;100.00;97230.53;5019381;28;20970;-80
2022/10/27 07:39:26;;;;;;;20.73;7.17;;;;;;;8.49;100.00;97296.66;5017789;28;20446;-80
2022/10/27 07:41:53;;;;;;;10.70;6.90;;;;;;;8.45;100.00;97282.50;5027377;28;20529;-80
2022/10/27 07:44:19;;;;;;;21.03;8.17;;;;;;;8.26;100.00;97248.25;5037848;28;20859;-80
2022/10/27 07:46:46;;;;;;;16.97;6.87;;;;;;;8.72;100.00;97318.72;5017932;28;20429;-80
2022/10/27 07:49:12;;;;;;;31.77;8.70;;;;;;;8.65;100.00;97305.09;5042466;28;20434;-80
2022/10/27 07:51:39;;;;;;;30.70;9.77;;;;;;;8.53;100.00;97273.94;5038273;28;21040;-80
2022/10/27 07:54:06;;;;;;;22.53;9.57;;;;;;;8.27;100.00;97265.63;5044065;28;20434;-79
2022/10/27 07:56:35;;;;;;;39.40;10.40;;;;;;;8.62;100.00;97308.31;5029058;28;20458;-80
2022/10/27 07:59:02;;;;;;;24.03;10.30;;;;;;;8.46;100.00;97273.53;5029127;28;20428;-79
2022/10/27 08:01:29;;;;;;;18.60;9.53;;;;;;;8.66;100.00;97292.72;5020637;28;20543;-80
2022/10/27 08:03:56;;;;;;;24.37;9.20;;;;;;;8.32;100.00;97240.28;5035059;28;20426;-80
2022/10/27 08:06:22;;;;;;;22.30;8.47;;;;;;;8.77;100.00;97292.25;5037094;28;20516;-80
2022/10/27 08:08:49;;;;;;;25.50;10.40;;;;;;;9.08;100.00;97308.34;5043720;28;20434;-80
2022/10/27 08:11:16;;;;;;;41.70;11.93;;;;;;;8.65;100.00;97233.94;5038740;28;20461;-79
2022/10/27 08:13:43;;;;;;;44.90;15.17;;;;;;;9.24;100.00;97318.59;5029182;28;20437;-80
2022/10/27 08:16:09;;;;;;;24.57;11.30;;;;;;;9.19;100.00;97293.06;5021344;28;20606;-80
2022/10/27 08:18:36;;;;;;;25.53;9.43;;;;;;;9.28;100.00;97293.97;5034965;28;20551;-80
2022/10/27 08:21:04;;;;;;;20.63;8.57;;;;;;;9.25;100.00;97305.13;5029183;28;20466;-80
2022/10/27 08:23:31;;;;;;;22.37;8.67;;;;;;;9.41;100.00;97335.41;5024477;28;20545;-80
2022/10/27 08:25:58;;;;;;;19.63;8.90;;;;;;;9.47;100.00;97330.81;5042059;28;20439;-80
2022/10/27 08:28:25;;;;;;;13.77;11.13;;;;;;;9.11;100.00;97285.84;5053468;28;20537;-80
2022/10/27 08:30:52;;;;;;;14.13;8.90;;;;;;;9.02;100.00;97261.22;5031588;28;20455;-80
2022/10/27 08:33:20;;;;;;;30.53;10.97;;;;;;;9.32;100.00;97287.03;5042749;28;20509;-80
2022/10/27 08:35:47;;;;;;;23.53;9.53;;;;;;;9.60;100.00;97329.25;5040473;28;20463;-80
2022/10/27 08:38:15;;;;;;;20.37;8.87;;;;;;;9.57;100.00;97332.47;5050258;28;20457;-80
2022/10/27 08:41:09;;;;;;;15.80;10.60;;;;;;;9.58;100.00;97334.81;5026522;28;20558;-80
2022/10/27 08:43:58;;;;;;;13.90;9.13;;;;;;;9.75;100.00;97334.25;5027045;28;20513;-80
2022/10/27 08:46:51;;;;;;;21.30;8.30;;;;;;;9.68;100.00;97325.91;5029791;28;20453;-80
2022/10/27 08:49:42;;;;;;;37.17;10.10;;;;;;;9.40;100.00;97296.91;5041781;28;20478;-80
2022/10/27 08:52:23;;;;;;;23.17;9.67;;;;;;;9.79;100.00;97337.84;5018368;28;20824;-80
2022/10/27 08:54:53;;;;;;;21.27;11.63;;;;;;;9.58;100.00;97305.78;5027810;28;20428;-80
2022/10/27 08:57:25;;;;;;;26.13;11.00;;;;;;;9.18;100.00;97251.94;5036280;28;20464;-79
2022/10/27 08:59:57;;;;;;;25.40;12.20;;;;;;;9.83;100.00;97341.44;5019275;28;20455;-80
2022/10/27 09:02:30;;;;;;;20.20;12.37;;;;;;;9.59;100.00;97303.91;5007199;28;20534;-80
2022/10/27 09:05:16;;;;;;;18.60;12.23;;;;;;;9.88;100.00;97346.66;5048720;28;20477;-80
2022/10/27 09:07:56;;;;;;;22.70;11.93;;;;;;;9.61;100.00;97291.97;5025038;28;20442;-80
2022/10/27 09:10:51;;;;;;;27.60;11.57;;;;;;;9.91;100.00;97334.69;5051005;28;20514;-80
2022/10/27 09:13:52;;;;;;;12.97;11.00;;;;;;;9.77;100.00;97295.09;5018499;28;20784;-80
2022/10/27 09:16:40;;;;;;;16.50;12.83;;;;;;;10.00;100.00;97322.34;5028567;28;20458;-80
2022/10/27 09:19:16;;;;;;;19.23;12.30;;;;;;;10.05;100.00;97314.31;5023023;28;20533;-80
2022/10/27 09:21:43;;;;;;;16.07;11.83;;;;;;;9.81;100.00;97280.22;5035602;28;21057;-80
2022/10/27 09:24:17;;;;;;;14.47;12.13;;;;;;;10.28;100.00;97313.31;5034719;28;20437;-80
2022/10/27 09:26:46;;;;;;;15.90;12.33;;;;;;;10.28;100.00;97325.69;5048910;28;20419;-80
2022/10/27 09:29:21;;;;;;;21.03;11.70;;;;;;;10.18;100.00;97326.69;5052822;28;20453;-80
2022/10/27 09:32:04;;;;;;;24.33;11.73;;;;;;;10.30;100.00;97336.78;5006594;28;20478;-80
2022/10/27 09:34:41;;;;;;;15.10;11.00;;;;;;;10.33;100.00;97328.25;5045835;28;20476;-80
2022/10/27 09:37:16;;;;;;;14.67;11.83;;;;;;;10.14;100.00;97306.44;5047742;28;20591;-80
2022/10/27 09:39:47;;;;;;;23.23;13.07;;;;;;;10.25;100.00;97291.94;5020735;28;20939;-80
2022/10/27 09:42:14;;;;;;;16.57;12.53;;;;;;;10.32;100.00;97294.97;5017378;28;20471;-80
2022/10/27 09:44:52;;;;;;;17.43;12.60;;;;;;;10.51;100.00;97314.06;5031002;28;20431;-80
2022/10/27 09:47:23;;;;;;;25.07;15.03;;;;;;;10.59;100.00;97313.34;5034904;28;20497;-80
2022/10/27 09:49:52;;;;;;;18.50;14.40;;;;;;;10.34;100.00;97293.59;5008635;28;20434;-80
2022/10/27 09:52:27;;;;;;;17.93;14.43;;;;;;;10.14;100.00;97272.88;5024210;28;20495;-80
2022/10/27 09:54:55;;;;;;;24.80;15.70;;;;;;;10.64;100.00;97329.09;5041189;28;20433;-80
2022/10/27 09:57:27;;;;;;;20.83;14.03;;;;;;;10.61;100.00;97315.69;5040489;28;20470;-80
2022/10/27 10:00:07;;;;;;;19.03;13.87;;;;;;;10.81;100.00;97346.94;5037409;28;20922;-80
2022/10/27 10:02:39;;;;;;;15.70;13.63;;;;;;;10.52;100.00;97281.25;5046618;28;20449;-80
2022/10/27 10:05:25;;;;;;;23.07;16.57;;;;;;;10.43;100.00;97284.94;5031045;28;20465;-80
2022/10/27 10:08:10;;;;;;;18.03;14.40;;;;;;;10.53;100.00;97301.31;5039144;28;20461;-80
2022/10/27 10:10:38;;;;;;;22.13;15.80;;;;;;;10.53;100.00;97303.97;5021855;28;20532;-80
2022/10/27 10:13:05;;;;;;;19.00;15.20;;;;;;;10.58;100.00;97338.25;5030322;28;20878;-80
2022/10/27 10:15:37;;;;;;;22.20;17.10;;;;;;;10.36;100.00;97280.84;5018294;28;20431;-80
2022/10/27 10:18:21;;;;;;;17.37;15.60;;;;;;;10.75;100.00;97295.25;5017507;28;20454;-80
2022/10/27 10:20:56;;;;;;;18.20;15.73;;;;;;;10.77;100.00;97322.16;5025308;28;20561;-80
2022/10/27 10:23:30;;;;;;;20.03;14.30;;;;;;;10.11;100.00;97241.75;5036125;28;20516;-80
2022/10/27 10:25:59;;;;;;;18.97;16.47;;;;;;;10.46;100.00;97294.91;5047099;28;20478;-80
2022/10/27 10:28:34;;;;;;;19.23;15.00;;;;;;;10.96;100.00;97348.44;5051560;28;20436;-80
2022/10/27 10:31:05;;;;;;;16.80;14.70;;;;;;;10.88;100.00;97307.59;5009444;28;20462;-80
2022/10/27 10:33:36;;;;;;;20.30;15.30;;;;;;;11.22;100.00;97353.88;5023257;28;20513;-80
2022/10/27 10:36:36;;;;;;;19.77;16.97;;;;;;;10.98;100.00;97333.03;5024694;28;20459;-80
2022/10/27 10:39:22;;;;;;;19.80;14.27;;;;;;;11.20;100.00;97353.38;5048703;28;20564;-81
2022/10/27 10:42:12;;;;;;;18.67;15.83;;;;;;;11.19;100.00;97354.47;5015995;28;20552;-80
2022/10/27 10:44:39;;;;;;;18.03;15.53;;;;;;;11.14;100.00;97336.84;5022109;28;20955;-80
2022/10/27 10:47:29;;;;;;;19.93;16.10;;;;;;;11.19;100.00;97326.13;5036499;28;20462;-80
2022/10/27 10:50:00;;;;;;;19.20;15.27;;;;;;;11.13;100.00;97332.66;5022282;28;20444;-80
2022/10/27 10:52:35;;;;;;;18.80;15.70;;;;;;;11.38;100.00;97368.25;5034054;28;20493;-80
2022/10/27 10:55:22;;;;;;;19.70;16.97;;;;;;;11.35;100.00;97362.78;5050412;28;20429;-81
2022/10/27 10:57:52;;;;;;;18.60;16.07;;;;;;;11.04;100.00;97323.88;5048464;28;20454;-80
2022/10/27 11:00:20;;;;;;;20.30;14.43;;;;;;;11.17;100.00;97364.56;5045491;28;20492;-80
2022/10/27 11:03:11;;;;;;;20.33;15.33;;;;;;;11.24;100.00;97355.13;5026712;28;20430;-80
2022/10/27 11:05:40;;;;;;;25.47;15.77;;;;;;;11.37;100.00;97360.63;5024065;28;20486;-80
2022/10/27 11:08:19;;;;;;;17.60;15.73;;;;;;;11.13;100.00;97327.34;5027283;28;20796;-80
2022/10/27 11:10:48;;;;;;;17.90;14.87;;;;;;;11.16;100.00;97320.66;5035546;28;20458;-80
2022/10/27 11:13:19;;;;;;;21.70;17.10;;;;;;;11.38;100.00;97338.34;5037248;28;20537;-80
2022/10/27 11:16:00;;;;;;;23.23;16.20;;;;;;;11.42;100.00;97334.78;5006595;28;20446;-80
2022/10/27 11:18:48;;;;;;;22.43;17.33;;;;;;;11.62;100.00;97335.31;5034842;28;20469;-80
2022/10/27 11:21:30;;;;;;;19.03;16.63;;;;;;;11.56;100.00;97329.38;5027023;28;20458;-80
2022/10/27 11:24:24;;;;;;;23.60;17.27;;;;;;;11.43;100.00;97327.63;5022847;28;20430;-80
2022/10/27 11:26:56;;;;;;;18.10;15.80;;;;;;;11.60;100.00;97326.88;5047314;28;20529;-80
2022/10/27 11:29:29;;;;;;;34.77;19.30;;;;;;;11.58;100.00;97321.91;5026369;28;20432;-80
2022/10/27 11:32:12;;;;;;;19.07;16.70;;;;;;;11.33;100.00;97296.13;5048188;28;20922;-80
2022/10/27 11:35:05;;;;;;;19.13;16.63;;;;;;;11.55;100.00;97314.56;5006344;28;20549;-80
2022/10/27 11:37:41;;;;;;;18.27;15.80;;;;;;;11.65;100.00;97316.16;5025187;28;20455;-80